Time;durP1;ratioP1;P1;durP2;ratioP2;P2;SDS_P1;SDS_P2;PMS_P1;PMS_P2;Temp;Humidity;BMP_temperature;BMP_pressure;BME280_temperature;BME280_humidity;BME280_pressure;Samples;Min_cycle;Max_cycle;Signal;HPM_P1;HPM_P2
2023/05/07 00:01:56;;;;;;;24.67;13.93;;;;;;;;;;6224652;28;20115;-65
2023/05/07 00:04:57;;;;;;;22.38;13.10;;;;;;;;;;6221797;28;20061;-58
2023/05/07 00:07:58;;;;;;;25.65;13.40;;;;;;;;;;6226890;28;20170;-60
2023/05/07 00:10:58;;;;;;;26.25;13.90;;;;;;;;;;6226644;28;20068;-59
2023/05/07 00:13:59;;;;;;;24.40;13.50;;;;;;;;;;6221672;28;20060;-65
2023/05/07 00:17:00;;;;;;;26.27;15.10;;;;;;;;;;6224008;28;20412;-60
2023/05/07 00:20:01;;;;;;;24.63;13.57;;;;;;;;;;6225183;28;20042;-59
2023/05/07 00:23:01;;;;;;;25.23;14.88;;;;;;;;;;6221647;28;20042;-60
2023/05/07 00:26:03;;;;;;;26.05;14.07;;;;;;;;;;6226031;28;20416;-62
2023/05/07 00:29:03;;;;;;;31.07;15.07;;;;;;;;;;6223471;28;20082;-60
2023/05/07 00:32:04;;;;;;;25.70;14.13;;;;;;;;;;6224177;28;20053;-57
2023/05/07 00:35:06;;;;;;;25.85;14.23;;;;;;;;;;6223465;28;20041;-60
2023/05/07 00:38:06;;;;;;;25.70;14.57;;;;;;;;;;6222698;28;20045;-60
2023/05/07 00:41:07;;;;;;;24.55;14.15;;;;;;;;;;6227149;28;20662;-60
2023/05/07 00:44:08;;;;;;;22.90;14.60;;;;;;;;;;6226041;28;20049;-60
2023/05/07 00:47:09;;;;;;;31.83;15.82;;;;;;;;;;6225539;28;20152;-59
2023/05/07 00:50:10;;;;;;;24.73;13.02;;;;;;;;;;6224469;28;20520;-61
2023/05/07 00:53:11;;;;;;;28.43;15.27;;;;;;;;;;6223430;28;20061;-57
2023/05/07 00:56:12;;;;;;;27.63;15.83;;;;;;;;;;6223366;28;20077;-59
2023/05/07 00:59:13;;;;;;;32.20;16.48;;;;;;;;;;6225728;28;20546;-59
2023/05/07 01:02:13;;;;;;;26.13;14.63;;;;;;;;;;6225522;28;20041;-60
2023/05/07 01:05:16;;;;;;;26.33;12.95;;;;;;;;;;6224462;28;20045;-60
2023/05/07 01:08:18;;;;;;;25.95;14.23;;;;;;;;;;6221414;28;20050;-65
2023/05/07 01:11:20;;;;;;;25.77;14.10;;;;;;;;;;6222424;28;20052;-57
2023/05/07 01:14:21;;;;;;;;;;;;;;;;;;6223080;28;20054;-62
2023/05/07 01:17:21;;;;;;;26.25;13.65;;;;;;;;;;6222398;28;19952;-60
2023/05/07 01:20:23;;;;;;;26.98;13.65;;;;;;;;;;6223265;28;20052;-59
2023/05/07 01:23:25;;;;;;;28.42;13.57;;;;;;;;;;6222353;28;20147;-59
2023/05/07 01:26:26;;;;;;;29.20;15.68;;;;;;;;;;6221692;28;20045;-64
2023/05/07 01:29:26;;;;;;;30.08;15.05;;;;;;;;;;6221321;28;20091;-59
2023/05/07 01:32:56;;;;;;;28.15;13.38;;;;;;;;;;6225381;28;20483;-58
2023/05/07 01:35:58;;;;;;;26.25;12.40;;;;;;;;;;6221657;28;20149;-60
2023/05/07 01:38:59;;;;;;;23.25;12.80;;;;;;;;;;6222919;28;20054;-60
2023/05/07 01:42:00;;;;;;;22.08;10.98;;;;;;;;;;6225432;28;20058;-64
2023/05/07 01:45:00;;;;;;;23.15;10.13;;;;;;;;;;6222140;28;20049;-66
2023/05/07 01:48:02;;;;;;;21.17;11.20;;;;;;;;;;6225292;28;20037;-58
2023/05/07 01:51:04;;;;;;;18.45;10.73;;;;;;;;;;6224743;28;20057;-59
2023/05/07 01:54:05;;;;;;;21.90;10.20;;;;;;;;;;6223199;28;20117;-60
2023/05/07 01:57:05;;;;;;;17.50;9.73;;;;;;;;;;6219082;28;20037;-60
2023/05/07 02:00:08;;;;;;;17.67;9.77;;;;;;;;;;6232004;28;20034;-60
2023/05/07 02:03:09;;;;;;;16.67;9.15;;;;;;;;;;6223940;28;20092;-66
2023/05/07 02:06:09;;;;;;;17.35;9.27;;;;;;;;;;6221300;28;20049;-60
2023/05/07 02:09:10;;;;;;;16.40;9.63;;;;;;;;;;6221075;28;20045;-64
2023/05/07 02:12:11;;;;;;;16.10;8.95;;;;;;;;;;6224864;28;20473;-68
2023/05/07 02:15:11;;;;;;;15.93;9.77;;;;;;;;;;6221522;28;20485;-61
2023/05/07 02:18:12;;;;;;;18.77;10.52;;;;;;;;;;6222253;28;20034;-61
2023/05/07 02:21:13;;;;;;;16.80;9.73;;;;;;;;;;6222722;28;20424;-61
2023/05/07 02:24:13;;;;;;;15.02;8.90;;;;;;;;;;6220268;28;20045;-59
2023/05/07 02:27:14;;;;;;;15.20;9.23;;;;;;;;;;6223118;28;20508;-65
2023/05/07 02:30:15;;;;;;;16.42;8.88;;;;;;;;;;6222431;28;20045;-63
2023/05/07 02:33:15;;;;;;;15.60;9.35;;;;;;;;;;6230797;28;20044;-65
2023/05/07 02:36:16;;;;;;;17.40;9.60;;;;;;;;;;6219572;28;20056;-61
2023/05/07 02:39:17;;;;;;;17.23;9.10;;;;;;;;;;6219557;28;20184;-59
2023/05/07 02:42:17;;;;;;;15.18;9.45;;;;;;;;;;6225014;28;20042;-60
2023/05/07 02:45:18;;;;;;;13.40;8.52;;;;;;;;;;6225853;28;20049;-61
2023/05/07 02:48:19;;;;;;;16.85;8.80;;;;;;;;;;6225530;28;20045;-60
2023/05/07 02:51:21;;;;;;;15.00;8.88;;;;;;;;;;6224586;28;20106;-59
2023/05/07 02:54:22;;;;;;;14.63;9.20;;;;;;;;;;6226189;28;20049;-58
2023/05/07 02:57:23;;;;;;;13.98;8.25;;;;;;;;;;6224788;28;20160;-59
2023/05/07 03:00:24;;;;;;;15.30;8.43;;;;;;;;;;6222760;28;20061;-60
2023/05/07 03:03:24;;;;;;;13.20;7.78;;;;;;;;;;6226923;28;20056;-65
2023/05/07 03:06:25;;;;;;;13.20;7.55;;;;;;;;;;6236468;28;20496;-61
2023/05/07 03:09:26;;;;;;;16.57;8.67;;;;;;;;;;6224935;28;20056;-63
2023/05/07 03:12:27;;;;;;;15.25;8.13;;;;;;;;;;6226934;28;20132;-60
2023/05/07 03:15:27;;;;;;;12.25;7.80;;;;;;;;;;6221165;28;20132;-60
2023/05/07 03:18:28;;;;;;;11.05;7.20;;;;;;;;;;6226104;28;20100;-62
2023/05/07 03:21:29;;;;;;;12.68;7.30;;;;;;;;;;6227632;28;20139;-58
2023/05/07 03:24:30;;;;;;;11.93;7.47;;;;;;;;;;6223217;28;20058;-58
2023/05/07 03:27:31;;;;;;;11.17;7.07;;;;;;;;;;6224250;28;20091;-59
2023/05/07 03:30:31;;;;;;;13.35;7.60;;;;;;;;;;6226345;28;20061;-59
2023/05/07 03:33:49;;;;;;;11.68;6.63;;;;;;;;;;6224553;28;20125;-63
2023/05/07 03:36:50;;;;;;;10.30;6.00;;;;;;;;;;6224728;28;20045;-65
2023/05/07 03:39:51;;;;;;;10.25;6.00;;;;;;;;;;6229099;28;20167;-59
2023/05/07 03:42:51;;;;;;;10.07;5.70;;;;;;;;;;6209579;28;20045;-64
2023/05/07 03:45:52;;;;;;;7.95;5.15;;;;;;;;;;6224779;28;20046;-65
2023/05/07 03:48:52;;;;;;;10.35;5.55;;;;;;;;;;6226750;28;20042;-58
2023/05/07 03:51:53;;;;;;;9.30;5.43;;;;;;;;;;6225964;28;20412;-58
2023/05/07 03:54:53;;;;;;;9.95;5.70;;;;;;;;;;6225104;28;20044;-60
2023/05/07 03:57:54;;;;;;;12.35;7.03;;;;;;;;;;6221658;28;20223;-57
2023/05/07 04:00:55;;;;;;;11.68;6.18;;;;;;;;;;6226021;28;20046;-59
2023/05/07 04:03:56;;;;;;;9.70;5.60;;;;;;;;;;6225487;28;20046;-60
2023/05/07 04:06:56;;;;;;;11.07;5.90;;;;;;;;;;6222012;28;20512;-60
2023/05/07 04:09:57;;;;;;;10.57;6.10;;;;;;;;;;6227362;28;20049;-64
2023/05/07 04:12:57;;;;;;;8.85;5.38;;;;;;;;;;6223987;28;20459;-62
2023/05/07 04:15:58;;;;;;;10.40;5.45;;;;;;;;;;6222011;28;20070;-60
2023/05/07 04:18:58;;;;;;;10.02;5.57;;;;;;;;;;6224304;28;20042;-60
2023/05/07 04:21:59;;;;;;;11.93;5.97;;;;;;;;;;6226626;28;20073;-60
2023/05/07 04:25:00;;;;;;;8.32;5.65;;;;;;;;;;6222099;28;20038;-61
2023/05/07 04:28:01;;;;;;;13.30;7.40;;;;;;;;;;6221454;28;20500;-63
2023/05/07 04:31:01;;;;;;;15.88;10.07;;;;;;;;;;6224285;28;20492;-57
2023/05/07 04:34:02;;;;;;;9.52;5.88;;;;;;;;;;6224771;28;20100;-66
2023/05/07 04:37:03;;;;;;;8.63;4.97;;;;;;;;;;6222467;28;20550;-58
2023/05/07 04:40:04;;;;;;;10.05;5.35;;;;;;;;;;6225460;28;20459;-65
2023/05/07 04:43:04;;;;;;;9.88;5.43;;;;;;;;;;6223842;28;20484;-60
2023/05/07 04:46:05;;;;;;;10.52;6.35;;;;;;;;;;6221249;28;20343;-58
2023/05/07 04:49:05;;;;;;;10.93;6.47;;;;;;;;;;6207244;28;20049;-66
2023/05/07 04:52:06;;;;;;;11.93;6.15;;;;;;;;;;6225285;28;20060;-66
2023/05/07 04:55:07;;;;;;;14.00;7.38;;;;;;;;;;6222620;28;20371;-60
2023/05/07 04:58:08;;;;;;;11.38;6.10;;;;;;;;;;6218336;28;20445;-66
2023/05/07 05:01:09;;;;;;;13.00;6.30;;;;;;;;;;6223767;28;20058;-59
2023/05/07 05:04:10;;;;;;;11.98;7.10;;;;;;;;;;6220423;28;20054;-59
2023/05/07 05:07:10;;;;;;;13.63;6.90;;;;;;;;;;6217885;28;20053;-62
2023/05/07 05:10:11;;;;;;;11.85;6.50;;;;;;;;;;6220901;28;20142;-60
2023/05/07 05:13:12;;;;;;;9.25;5.93;;;;;;;;;;6221602;28;20119;-59
2023/05/07 05:16:13;;;;;;;9.43;5.70;;;;;;;;;;6223525;28;20034;-62
2023/05/07 05:19:13;;;;;;;10.85;6.10;;;;;;;;;;6220914;28;20638;-64
2023/05/07 05:22:15;;;;;;;11.05;5.65;;;;;;;;;;6221817;28;20540;-64
2023/05/07 05:25:15;;;;;;;10.45;5.47;;;;;;;;;;6222442;28;20060;-63
2023/05/07 05:28:16;;;;;;;11.88;5.78;;;;;;;;;;6223175;28;20477;-62
2023/05/07 05:31:16;;;;;;;13.30;5.53;;;;;;;;;;6223113;28;20120;-58
2023/05/07 05:34:19;;;;;;;9.32;5.35;;;;;;;;;;6218985;28;20050;-61
2023/05/07 05:37:19;;;;;;;9.98;5.15;;;;;;;;;;6222557;28;20129;-58
2023/05/07 05:40:20;;;;;;;11.68;5.90;;;;;;;;;;6220132;28;20068;-62
2023/05/07 05:43:20;;;;;;;9.32;5.93;;;;;;;;;;6219991;28;20045;-54
2023/05/07 05:46:21;;;;;;;9.05;5.55;;;;;;;;;;6219052;28;20053;-60
2023/05/07 05:49:22;;;;;;;15.27;5.78;;;;;;;;;;6219706;28;20049;-59
2023/05/07 05:52:23;;;;;;;8.02;4.10;;;;;;;;;;6217773;28;20135;-59
2023/05/07 05:55:24;;;;;;;9.02;4.32;;;;;;;;;;6217708;28;20137;-60
2023/05/07 05:58:25;;;;;;;8.32;4.32;;;;;;;;;;6218891;28;20053;-65
2023/05/07 06:01:25;;;;;;;8.10;4.57;;;;;;;;;;6221724;28;20587;-59
2023/05/07 06:04:26;;;;;;;7.05;4.47;;;;;;;;;;6222188;28;20045;-56
2023/05/07 06:07:27;;;;;;;8.40;5.68;;;;;;;;;;6219758;28;20050;-58
2023/05/07 06:10:27;;;;;;;7.45;4.40;;;;;;;;;;6221124;28;20121;-57
2023/05/07 06:13:28;;;;;;;8.77;4.35;;;;;;;;;;6221166;28;20056;-59
2023/05/07 06:16:29;;;;;;;7.30;4.10;;;;;;;;;;6220715;28;20045;-59
2023/05/07 06:19:29;;;;;;;8.50;4.28;;;;;;;;;;6226230;28;20500;-58
2023/05/07 06:22:30;;;;;;;8.18;4.55;;;;;;;;;;6235998;28;20042;-63
2023/05/07 06:25:30;;;;;;;6.78;4.32;;;;;;;;;;6241623;28;20049;-57
2023/05/07 06:28:35;;;;;;;7.85;4.25;;;;;;;;;;6243751;28;20068;-57
2023/05/07 06:31:36;;;;;;;7.32;3.95;;;;;;;;;;6227908;28;20050;-55
2023/05/07 06:34:37;;;;;;;9.38;4.43;;;;;;;;;;6225318;28;20065;-58
2023/05/07 06:37:39;;;;;;;8.02;4.22;;;;;;;;;;6230980;28;20048;-58
2023/05/07 06:40:40;;;;;;;7.22;4.15;;;;;;;;;;6223830;28;20038;-57
2023/05/07 06:43:40;;;;;;;7.78;4.97;;;;;;;;;;6227135;28;20053;-56
2023/05/07 06:46:41;;;;;;;7.20;4.38;;;;;;;;;;6226426;28;20057;-57
2023/05/07 06:49:42;;;;;;;7.00;4.15;;;;;;;;;;6226120;28;20038;-60
2023/05/07 06:52:42;;;;;;;7.60;4.75;;;;;;;;;;6221789;28;20041;-57
2023/05/07 06:55:43;;;;;;;8.82;4.85;;;;;;;;;;6223286;28;20052;-56
2023/05/07 06:58:44;;;;;;;10.90;5.15;;;;;;;;;;6225299;28;20131;-60
2023/05/07 07:01:45;;;;;;;7.70;5.20;;;;;;;;;;6225682;28;20049;-59
2023/05/07 07:04:45;;;;;;;8.85;5.53;;;;;;;;;;6245094;28;20048;-60
2023/05/07 07:07:52;;;;;;;8.05;4.15;;;;;;;;;;6243598;28;20042;-61
2023/05/07 07:10:53;;;;;;;7.43;3.80;;;;;;;;;;6245980;28;20125;-61
2023/05/07 07:13:54;;;;;;;8.00;4.18;;;;;;;;;;6245828;28;20056;-60
2023/05/07 07:16:54;;;;;;;7.97;3.87;;;;;;;;;;6244088;28;20038;-59
2023/05/07 07:19:55;;;;;;;7.50;4.78;;;;;;;;;;6245832;28;20115;-61
2023/05/07 07:22:56;;;;;;;9.43;5.28;;;;;;;;;;6245291;28;20483;-58
2023/05/07 07:25:56;;;;;;;6.15;4.38;;;;;;;;;;6243846;28;20052;-63
2023/05/07 07:28:57;;;;;;;7.00;4.18;;;;;;;;;;6242301;28;20411;-59
2023/05/07 07:31:57;;;;;;;8.52;4.13;;;;;;;;;;6243673;28;20065;-64
2023/05/07 07:34:58;;;;;;;7.90;3.63;;;;;;;;;;6244481;28;20057;-63
2023/05/07 07:37:58;;;;;;;5.13;3.40;;;;;;;;;;6243279;28;20060;-65
2023/05/07 07:41:00;;;;;;;7.00;3.78;;;;;;;;;;6244530;28;20068;-61
2023/05/07 07:44:00;;;;;;;7.90;4.35;;;;;;;;;;6243601;28;20122;-64
2023/05/07 07:47:01;;;;;;;6.82;4.10;;;;;;;;;;6224723;28;20144;-57
2023/05/07 07:50:01;;;;;;;8.18;4.70;;;;;;;;;;6237752;28;20045;-60
2023/05/07 07:53:02;;;;;;;9.02;4.80;;;;;;;;;;6244834;28;20050;-60
2023/05/07 07:56:03;;;;;;;8.45;4.90;;;;;;;;;;6242981;28;20124;-57
2023/05/07 07:59:04;;;;;;;10.25;5.15;;;;;;;;;;6243893;28;20500;-58
2023/05/07 08:02:04;;;;;;;7.80;4.70;;;;;;;;;;6238786;28;20042;-59
2023/05/07 08:05:05;;;;;;;8.80;5.20;;;;;;;;;;6221409;28;20060;-61
2023/05/07 08:08:06;;;;;;;7.90;4.53;;;;;;;;;;6242492;28;20067;-62
2023/05/07 08:11:06;;;;;;;7.35;4.20;;;;;;;;;;6243614;28;20508;-59
2023/05/07 08:14:07;;;;;;;7.95;5.20;;;;;;;;;;6243931;28;20045;-60
2023/05/07 08:17:09;;;;;;;6.78;4.30;;;;;;;;;;6243133;28;20072;-63
2023/05/07 08:20:10;;;;;;;5.72;3.58;;;;;;;;;;6244326;28;20385;-59
2023/05/07 08:23:10;;;;;;;5.90;3.40;;;;;;;;;;6240904;28;20050;-64
2023/05/07 08:26:11;;;;;;;5.03;3.63;;;;;;;;;;6229639;28;20053;-62
2023/05/07 08:29:12;;;;;;;5.65;3.45;;;;;;;;;;6243976;28;20480;-62
2023/05/07 08:32:12;;;;;;;6.80;4.22;;;;;;;;;;6243845;28;20053;-62
2023/05/07 08:35:14;;;;;;;5.40;3.53;;;;;;;;;;6242277;28;20061;-60
2023/05/07 08:38:14;;;;;;;5.57;3.38;;;;;;;;;;6242813;28;20033;-58
2023/05/07 08:41:16;;;;;;;7.45;3.63;;;;;;;;;;6243909;28;20053;-59
2023/05/07 08:44:17;;;;;;;5.90;3.30;;;;;;;;;;6243240;28;20048;-64
2023/05/07 08:47:20;;;;;;;5.40;3.63;;;;;;;;;;6239457;28;20056;-65
2023/05/07 08:50:21;;;;;;;6.50;3.97;;;;;;;;;;6232407;28;20088;-61
2023/05/07 08:53:22;;;;;;;4.83;3.00;;;;;;;;;;6235262;28;20046;-59
2023/05/07 08:56:22;;;;;;;6.50;3.75;;;;;;;;;;6233423;28;20282;-61
2023/05/07 08:59:23;;;;;;;6.28;3.80;;;;;;;;;;6240981;28;20054;-58
2023/05/07 09:02:24;;;;;;;6.10;3.97;;;;;;;;;;6240939;28;20061;-60
2023/05/07 09:05:24;;;;;;;6.57;4.20;;;;;;;;;;6238393;28;20480;-61
2023/05/07 09:08:26;;;;;;;8.93;4.57;;;;;;;;;;6242129;28;20155;-63
2023/05/07 09:11:27;;;;;;;7.47;4.90;;;;;;;;;;6236141;28;20050;-64
2023/05/07 09:14:28;;;;;;;7.25;4.20;;;;;;;;;;6232181;28;20049;-59
2023/05/07 09:17:29;;;;;;;8.80;4.50;;;;;;;;;;6241706;28;20535;-57
2023/05/07 09:20:32;;;;;;;10.48;4.75;;;;;;;;;;6242349;28;20060;-58
2023/05/07 09:23:33;;;;;;;9.55;5.68;;;;;;;;;;6232654;28;20046;-61
2023/05/07 09:26:34;;;;;;;15.57;7.93;;;;;;;;;;6241242;28;20049;-61
2023/05/07 09:29:35;;;;;;;9.57;4.93;;;;;;;;;;6238273;28;20049;-67
2023/05/07 09:32:39;;;;;;;9.88;5.90;;;;;;;;;;6225868;28;20053;-68
2023/05/07 09:35:40;;;;;;;9.88;5.78;;;;;;;;;;6225578;28;20054;-65
2023/05/07 09:38:41;;;;;;;10.35;5.43;;;;;;;;;;6237481;28;20056;-68
2023/05/07 09:41:46;;;;;;;13.07;8.40;;;;;;;;;;6222871;28;20054;-64
2023/05/07 09:44:47;;;;;;;16.63;9.57;;;;;;;;;;6223828;28;20137;-73
2023/05/07 09:47:49;;;;;;;13.02;7.82;;;;;;;;;;6224747;28;20149;-65
2023/05/07 09:50:52;;;;;;;13.00;8.02;;;;;;;;;;6231611;28;20045;-62
2023/05/07 09:53:53;;;;;;;22.33;13.45;;;;;;;;;;6231997;28;20467;-68
2023/05/07 09:56:55;;;;;;;24.17;14.90;;;;;;;;;;6227444;28;20026;-69
2023/05/07 09:59:57;;;;;;;25.35;14.55;;;;;;;;;;6231188;28;20045;-69
2023/05/07 10:02:58;;;;;;;;;;;;;;;;;;6233074;28;20455;-72
2023/05/07 10:06:00;;;;;;;22.02;12.73;;;;;;;;;;6230067;28;19933;-74
2023/05/07 10:09:02;;;;;;;24.52;13.35;;;;;;;;;;6230702;28;20087;-73
2023/05/07 10:12:03;;;;;;;23.27;13.25;;;;;;;;;;6230873;28;20134;-68
2023/05/07 10:15:07;;;;;;;19.15;12.27;;;;;;;;;;6230752;28;20519;-74
2023/05/07 10:18:08;;;;;;;17.60;10.88;;;;;;;;;;6228541;28;20079;-65
2023/05/07 10:21:17;;;;;;;16.45;10.18;;;;;;;;;;6230879;28;20057;-66
2023/05/07 10:24:37;;;;;;;16.77;10.85;;;;;;;;;;6233268;28;20049;-69
2023/05/07 10:27:38;;;;;;;16.83;10.82;;;;;;;;;;6229409;28;20141;-69
2023/05/07 10:30:44;;;;;;;16.85;10.70;;;;;;;;;;6230758;28;20057;-64
2023/05/07 10:33:48;;;;;;;18.05;10.68;;;;;;;;;;6232379;28;20464;-76
2023/05/07 10:36:50;;;;;;;19.80;12.18;;;;;;;;;;6230509;28;20542;-74
2023/05/07 10:39:51;;;;;;;17.47;11.37;;;;;;;;;;6232000;28;20570;-70
2023/05/07 10:43:04;;;;;;;18.07;11.40;;;;;;;;;;6232346;28;20056;-61
2023/05/07 10:46:17;;;;;;;17.67;11.52;;;;;;;;;;6230840;28;20099;-63
2023/05/07 10:49:18;;;;;;;19.90;12.77;;;;;;;;;;6232363;28;20411;-58
2023/05/07 10:52:30;;;;;;;21.10;12.13;;;;;;;;;;6229815;28;20068;-64
2023/05/07 10:55:30;;;;;;;19.45;11.60;;;;;;;;;;6229516;28;20059;-67
2023/05/07 10:58:33;;;;;;;19.50;12.07;;;;;;;;;;6229071;28;20489;-65
2023/05/07 11:01:51;;;;;;;22.45;12.43;;;;;;;;;;6231422;28;20527;-68
2023/05/07 11:05:18;;;;;;;38.38;17.10;;;;;;;;;;6234206;28;20123;-66
2023/05/07 11:08:19;;;;;;;18.05;11.35;;;;;;;;;;6233595;28;20071;-62
2023/05/07 11:11:40;;;;;;;18.05;11.35;;;;;;;;;;6234884;28;20583;-71
2023/05/07 11:14:42;;;;;;;26.02;13.23;;;;;;;;;;6235490;28;20053;-69
2023/05/07 11:17:53;;;;;;;23.40;12.85;;;;;;;;;;6235235;28;20060;-58
2023/05/07 11:20:58;;;;;;;23.60;13.73;;;;;;;;;;6235755;28;20052;-62
2023/05/07 11:24:00;;;;;;;20.35;12.63;;;;;;;;;;6236283;28;20058;-56
2023/05/07 11:27:01;;;;;;;18.85;11.63;;;;;;;;;;6233651;28;20057;-68
2023/05/07 11:30:02;;;;;;;18.45;12.27;;;;;;;;;;6237396;28;20061;-56
2023/05/07 11:33:04;;;;;;;19.90;12.52;;;;;;;;;;6237744;28;20059;-75
2023/05/07 11:36:05;;;;;;;21.37;11.97;;;;;;;;;;6233543;28;20049;-65
2023/05/07 11:39:27;;;;;;;19.63;11.45;;;;;;;;;;6234363;28;20071;-66
2023/05/07 11:42:38;;;;;;;20.30;12.23;;;;;;;;;;6235255;28;21293;-71
2023/05/07 11:45:39;;;;;;;14.50;9.75;;;;;;;;;;6235292;28;20571;-60
2023/05/07 11:48:41;;;;;;;18.05;10.90;;;;;;;;;;6231890;28;20099;-71
2023/05/07 11:51:42;;;;;;;;;;;;;;;;;;6237636;28;20879;-59
2023/05/07 11:54:49;;;;;;;14.68;9.23;;;;;;;;;;6236045;28;19941;-66
2023/05/07 11:57:50;;;;;;;13.38;9.20;;;;;;;;;;6234529;28;20111;-61
2023/05/07 12:00:53;;;;;;;17.33;10.45;;;;;;;;;;6233893;28;20079;-66
2023/05/07 12:03:54;;;;;;;14.35;9.75;;;;;;;;;;6233854;28;20053;-58
2023/05/07 12:06:55;;;;;;;15.73;10.38;;;;;;;;;;6231225;28;20062;-67
2023/05/07 12:09:56;;;;;;;12.20;8.60;;;;;;;;;;6233378;28;20123;-57
2023/05/07 12:12:56;;;;;;;12.00;7.50;;;;;;;;;;6232778;28;20045;-59
2023/05/07 12:15:57;;;;;;;9.27;6.63;;;;;;;;;;6232567;28;20650;-59
2023/05/07 12:18:58;;;;;;;11.23;7.13;;;;;;;;;;6232714;28;20045;-57
2023/05/07 12:21:59;;;;;;;12.50;7.60;;;;;;;;;;6233097;28;20080;-72
2023/05/07 12:25:00;;;;;;;10.40;7.03;;;;;;;;;;6234295;28;20053;-60
2023/05/07 12:28:02;;;;;;;17.33;9.82;;;;;;;;;;6231354;28;20049;-57
2023/05/07 12:31:03;;;;;;;12.25;6.60;;;;;;;;;;6233702;28;20520;-69
2023/05/07 12:34:04;;;;;;;8.67;6.23;;;;;;;;;;6234943;28;20110;-73
2023/05/07 12:37:04;;;;;;;13.05;8.48;;;;;;;;;;6232013;28;20283;-76
2023/05/07 12:40:07;;;;;;;12.13;7.75;;;;;;;;;;6233773;28;20072;-63
2023/05/07 12:43:16;;;;;;;9.07;6.20;;;;;;;;;;6239487;28;20393;-74
2023/05/07 12:46:18;;;;;;;11.20;6.90;;;;;;;;;;6243947;28;20071;-61
2023/05/07 12:49:18;;;;;;;9.43;5.00;;;;;;;;;;6216316;28;20050;-60
2023/05/07 12:52:20;;;;;;;7.85;5.55;;;;;;;;;;6220441;28;20245;-63
2023/05/07 12:55:21;;;;;;;7.13;4.80;;;;;;;;;;6218800;28;21278;-59
2023/05/07 12:58:30;;;;;;;8.68;5.18;;;;;;;;;;6218540;28;20355;-67
2023/05/07 13:01:33;;;;;;;13.60;6.72;;;;;;;;;;6222611;28;20781;-60
2023/05/07 13:04:34;;;;;;;11.82;7.68;;;;;;;;;;6221033;28;20448;-61
2023/05/07 13:07:36;;;;;;;16.15;9.43;;;;;;;;;;6220856;28;20041;-66
2023/05/07 13:10:37;;;;;;;13.13;7.90;;;;;;;;;;6230831;28;20488;-64
2023/05/07 13:13:39;;;;;;;22.77;11.85;;;;;;;;;;6220665;28;20055;-60
2023/05/07 13:16:40;;;;;;;11.73;7.57;;;;;;;;;;6220853;28;20044;-63
2023/05/07 13:19:40;;;;;;;12.93;8.38;;;;;;;;;;6222800;28;20407;-72
2023/05/07 13:22:41;;;;;;;10.60;6.30;;;;;;;;;;6230747;28;20049;-63
2023/05/07 13:25:42;;;;;;;14.50;9.10;;;;;;;;;;6228155;28;20057;-70
2023/05/07 13:28:43;;;;;;;13.75;8.18;;;;;;;;;;6233139;28;20073;-59
2023/05/07 13:31:43;;;;;;;8.52;5.78;;;;;;;;;;6232728;28;20467;-60
2023/05/07 13:34:44;;;;;;;7.63;5.03;;;;;;;;;;6231227;28;20115;-60
2023/05/07 13:37:45;;;;;;;10.10;5.55;;;;;;;;;;6231935;28;20056;-60
2023/05/07 13:40:45;;;;;;;9.00;5.57;;;;;;;;;;6233375;28;20045;-60
2023/05/07 13:43:46;;;;;;;7.18;4.60;;;;;;;;;;6235000;28;20049;-60
2023/05/07 13:46:46;;;;;;;9.07;5.20;;;;;;;;;;6242354;28;20432;-60
2023/05/07 13:49:49;;;;;;;8.00;5.40;;;;;;;;;;6237102;28;20071;-60
2023/05/07 13:52:52;;;;;;;8.57;5.32;;;;;;;;;;6225873;28;20072;-71
2023/05/07 13:55:53;;;;;;;8.90;5.10;;;;;;;;;;6227231;28;20448;-69
2023/05/07 13:58:53;;;;;;;8.35;5.70;;;;;;;;;;6222420;28;20070;-72
2023/05/07 14:01:54;;;;;;;9.80;5.82;;;;;;;;;;6220986;28;20511;-70
2023/05/07 14:04:55;;;;;;;7.57;4.83;;;;;;;;;;6230789;28;20565;-62
2023/05/07 14:07:57;;;;;;;8.55;5.20;;;;;;;;;;6222012;28;20054;-66
2023/05/07 14:10:59;;;;;;;8.98;5.55;;;;;;;;;;6221732;28;20072;-58
2023/05/07 14:14:00;;;;;;;9.63;5.80;;;;;;;;;;6226224;28;20050;-72
2023/05/07 14:17:01;;;;;;;10.48;6.43;;;;;;;;;;6207398;28;20134;-62
2023/05/07 14:20:01;;;;;;;12.35;7.25;;;;;;;;;;6220936;28;20046;-60
2023/05/07 14:23:02;;;;;;;11.00;6.93;;;;;;;;;;6224757;28;20974;-60
2023/05/07 14:26:02;;;;;;;9.38;5.65;;;;;;;;;;6228082;28;20049;-69
2023/05/07 14:29:03;;;;;;;9.88;6.28;;;;;;;;;;6221047;28;20038;-69
2023/05/07 14:32:04;;;;;;;7.65;5.43;;;;;;;;;;6221785;28;20389;-72
2023/05/07 14:35:05;;;;;;;10.38;7.20;;;;;;;;;;6236354;28;20136;-68
2023/05/07 14:38:05;;;;;;;9.57;6.10;;;;;;;;;;6241610;28;20124;-72
2023/05/07 14:41:06;;;;;;;8.45;6.10;;;;;;;;;;6227494;28;20038;-60
2023/05/07 14:44:06;;;;;;;10.60;5.55;;;;;;;;;;6225718;28;20046;-70
2023/05/07 14:47:07;;;;;;;10.40;6.60;;;;;;;;;;6226334;28;20056;-60
2023/05/07 14:50:08;;;;;;;10.05;6.28;;;;;;;;;;6226411;28;20046;-60
2023/05/07 14:53:09;;;;;;;14.00;7.78;;;;;;;;;;6225774;28;20058;-63
2023/05/07 14:56:09;;;;;;;11.93;8.02;;;;;;;;;;6224476;28;20140;-60
2023/05/07 14:59:10;;;;;;;11.95;7.70;;;;;;;;;;6228200;28;20054;-65
2023/05/07 15:02:13;;;;;;;11.50;7.20;;;;;;;;;;6223847;28;20037;-64
2023/05/07 15:05:14;;;;;;;11.20;7.10;;;;;;;;;;6223497;28;20515;-67
2023/05/07 15:08:14;;;;;;;13.55;8.18;;;;;;;;;;6223979;28;20057;-61
2023/05/07 15:11:17;;;;;;;11.65;7.28;;;;;;;;;;6223739;28;20741;-62
2023/05/07 15:14:18;;;;;;;13.38;7.97;;;;;;;;;;6223174;28;20120;-60
2023/05/07 15:17:19;;;;;;;14.88;8.73;;;;;;;;;;6225825;28;20053;-65
2023/05/07 15:20:19;;;;;;;15.32;8.20;;;;;;;;;;6221267;28;20099;-64
2023/05/07 15:23:20;;;;;;;11.68;7.75;;;;;;;;;;6225210;28;20120;-70
2023/05/07 15:26:21;;;;;;;10.73;6.68;;;;;;;;;;6222374;28;20084;-64
2023/05/07 15:29:21;;;;;;;18.35;10.25;;;;;;;;;;6220811;28;20503;-67
2023/05/07 15:32:22;;;;;;;19.30;10.43;;;;;;;;;;6225371;28;20056;-62
2023/05/07 15:35:23;;;;;;;13.93;8.95;;;;;;;;;;6223070;28;20046;-61
2023/05/07 15:38:23;;;;;;;12.48;7.85;;;;;;;;;;6225221;28;20103;-61
2023/05/07 15:41:24;;;;;;;12.68;8.13;;;;;;;;;;6221752;28;20073;-63
2023/05/07 15:44:30;;;;;;;13.18;8.63;;;;;;;;;;6221480;28;20053;-69
2023/05/07 15:47:33;;;;;;;15.43;8.88;;;;;;;;;;6225320;28;20136;-60
2023/05/07 15:50:34;;;;;;;12.70;8.70;;;;;;;;;;6222210;28;20056;-64
2023/05/07 15:53:38;;;;;;;14.32;8.70;;;;;;;;;;6221762;28;20056;-59
2023/05/07 15:56:39;;;;;;;14.45;8.40;;;;;;;;;;6221874;28;20565;-61
2023/05/07 15:59:40;;;;;;;13.77;8.30;;;;;;;;;;6221750;28;20056;-65
2023/05/07 16:02:41;;;;;;;12.98;8.48;;;;;;;;;;6224169;28;20317;-63
2023/05/07 16:05:41;;;;;;;14.95;8.40;;;;;;;;;;6203251;28;20045;-62
2023/05/07 16:08:43;;;;;;;13.15;8.15;;;;;;;;;;6229357;28;20562;-62
2023/05/07 16:11:44;;;;;;;14.30;8.40;;;;;;;;;;6229042;28;20090;-62
2023/05/07 16:14:45;;;;;;;15.82;9.50;;;;;;;;;;6207212;28;20042;-62
2023/05/07 16:17:48;;;;;;;14.98;8.98;;;;;;;;;;6227472;28;20527;-65
2023/05/07 16:20:48;;;;;;;15.68;8.73;;;;;;;;;;6230377;28;20046;-61
2023/05/07 16:23:49;;;;;;;15.18;8.63;;;;;;;;;;6231783;28;20469;-67
2023/05/07 16:26:50;;;;;;;13.77;9.70;;;;;;;;;;6231312;28;20095;-62
2023/05/07 16:29:51;;;;;;;13.63;8.18;;;;;;;;;;6230782;28;20107;-61
2023/05/07 16:32:51;;;;;;;15.32;8.63;;;;;;;;;;6232148;28;20103;-63
2023/05/07 16:35:52;;;;;;;13.85;8.35;;;;;;;;;;6230593;28;20068;-65
2023/05/07 16:38:53;;;;;;;12.40;8.45;;;;;;;;;;6230297;28;20057;-62
2023/05/07 16:41:54;;;;;;;14.35;8.68;;;;;;;;;;6212987;28;20052;-61
2023/05/07 16:44:55;;;;;;;14.90;8.25;;;;;;;;;;6214495;28;20053;-61
2023/05/07 16:47:57;;;;;;;13.50;8.35;;;;;;;;;;6230208;28;20060;-66
2023/05/07 16:50:57;;;;;;;14.07;8.25;;;;;;;;;;6228524;28;20140;-62
2023/05/07 16:53:58;;;;;;;12.65;8.18;;;;;;;;;;6213405;28;20050;-72
2023/05/07 16:56:59;;;;;;;13.10;7.85;;;;;;;;;;6230510;28;20791;-67
2023/05/07 16:59:59;;;;;;;11.95;7.57;;;;;;;;;;6211132;28;20041;-62
2023/05/07 17:03:01;;;;;;;12.90;8.60;;;;;;;;;;6232143;28;20052;-61
2023/05/07 17:06:02;;;;;;;13.77;9.20;;;;;;;;;;6230284;28;20059;-64
2023/05/07 17:09:03;;;;;;;15.73;8.90;;;;;;;;;;6228803;28;20049;-61
2023/05/07 17:12:04;;;;;;;15.23;8.98;;;;;;;;;;6228111;28;20429;-67
2023/05/07 17:15:05;;;;;;;15.90;8.85;;;;;;;;;;6213485;28;20061;-61
2023/05/07 17:18:06;;;;;;;12.50;7.55;;;;;;;;;;6228273;28;20056;-68
2023/05/07 17:21:07;;;;;;;14.85;8.80;;;;;;;;;;6228618;28;20080;-75
2023/05/07 17:24:08;;;;;;;16.27;8.90;;;;;;;;;;6213705;28;20818;-61
2023/05/07 17:27:09;;;;;;;16.55;9.90;;;;;;;;;;6228889;28;20042;-68
2023/05/07 17:30:10;;;;;;;16.05;8.88;;;;;;;;;;6228611;28;20140;-62
2023/05/07 17:33:10;;;;;;;15.07;9.18;;;;;;;;;;6230372;28;20049;-72
2023/05/07 17:36:11;;;;;;;14.35;8.43;;;;;;;;;;6227228;28;20112;-61
2023/05/07 17:39:12;;;;;;;13.30;8.15;;;;;;;;;;6230263;28;20052;-71
2023/05/07 17:42:12;;;;;;;18.30;9.40;;;;;;;;;;6230171;28;20404;-64
2023/05/07 17:45:13;;;;;;;11.82;7.47;;;;;;;;;;6230934;28;20049;-64
2023/05/07 17:48:14;;;;;;;15.30;8.30;;;;;;;;;;6227615;28;20056;-62
2023/05/07 17:51:15;;;;;;;13.10;7.95;;;;;;;;;;6228589;28;20054;-67
2023/05/07 17:54:15;;;;;;;12.27;7.82;;;;;;;;;;6231469;28;20049;-67